sensor_id;sensor_type;location;lat;lon;timestamp;pressure;altitude;pressure_sealevel;temperature;humidity
81162;BME280;70638;-33.792;151.032;2023-10-08T00:01:46;102572.08;;;18.56;52.78
81162;BME280;70638;-33.792;151.032;2023-10-08T00:04:11;102572.23;;;18.44;52.20
81162;BME280;70638;-33.792;151.032;2023-10-08T00:06:41;102570.62;;;18.21;52.57
81162;BME280;70638;-33.792;151.032;2023-10-08T00:09:11;102566.42;;;17.88;52.83
81162;BME280;70638;-33.792;151.032;2023-10-08T00:11:42;102565.53;;;17.77;52.96
81162;BME280;70638;-33.792;151.032;2023-10-08T00:14:23;102560.20;;;17.71;53.45
81162;BME280;70638;-33.792;151.032;2023-10-08T00:16:42;102559.92;;;17.77;54.49
81162;BME280;70638;-33.792;151.032;2023-10-08T00:19:17;102560.61;;;17.85;54.75
81162;BME280;70638;-33.792;151.032;2023-10-08T00:21:55;102557.91;;;17.94;53.63
81162;BME280;70638;-33.792;151.032;2023-10-08T00:24:15;102555.19;;;18.05;54.39
81162;BME280;70638;-33.792;151.032;2023-10-08T00:26:44;102551.94;;;18.08;53.45
81162;BME280;70638;-33.792;151.032;2023-10-08T00:29:24;102548.92;;;18.61;53.66
81162;BME280;70638;-33.792;151.032;2023-10-08T00:31:48;102541.75;;;18.89;51.42
81162;BME280;70638;-33.792;151.032;2023-10-08T00:34:16;102534.60;;;18.81;50.62
81162;BME280;70638;-33.792;151.032;2023-10-08T00:36:47;102531.03;;;18.69;52.69
81162;BME280;70638;-33.792;151.032;2023-10-08T00:39:18;102526.09;;;18.45;50.67
81162;BME280;70638;-33.792;151.032;2023-10-08T00:41:47;102524.58;;;18.30;53.61
81162;BME280;70638;-33.792;151.032;2023-10-08T00:44:29;102518.72;;;18.27;54.52
81162;BME280;70638;-33.792;151.032;2023-10-08T00:46:53;102513.64;;;18.24;52.70
81162;BME280;70638;-33.792;151.032;2023-10-08T00:49:51;102511.70;;;18.29;54.93
81162;BME280;70638;-33.792;151.032;2023-10-08T00:51:54;102509.28;;;18.36;51.90
81162;BME280;70638;-33.792;151.032;2023-10-08T00:54:22;102501.59;;;18.59;52.03
81162;BME280;70638;-33.792;151.032;2023-10-08T00:57:09;102494.09;;;18.89;52.01
81162;BME280;70638;-33.792;151.032;2023-10-08T00:59:22;102486.11;;;19.23;50.10
81162;BME280;70638;-33.792;151.032;2023-10-08T01:01:54;102478.70;;;19.39;48.69
81162;BME280;70638;-33.792;151.032;2023-10-08T01:04:24;102476.09;;;19.67;50.49
81162;BME280;70638;-33.792;151.032;2023-10-08T01:06:57;102469.91;;;19.50;46.78
81162;BME280;70638;-33.792;151.032;2023-10-08T01:09:23;102464.84;;;19.84;49.14
81162;BME280;70638;-33.792;151.032;2023-10-08T01:12:11;102465.22;;;19.61;46.78
81162;BME280;70638;-33.792;151.032;2023-10-08T01:14:33;102460.73;;;19.15;47.57
81162;BME280;70638;-33.792;151.032;2023-10-08T01:16:53;102456.84;;;19.12;47.79
81162;BME280;70638;-33.792;151.032;2023-10-08T01:19:23;102453.66;;;19.15;46.81
81162;BME280;70638;-33.792;151.032;2023-10-08T01:21:54;102451.91;;;19.55;48.99
81162;BME280;70638;-33.792;151.032;2023-10-08T01:24:27;102444.66;;;20.14;48.73
81162;BME280;70638;-33.792;151.032;2023-10-08T01:26:54;102443.95;;;20.33;49.94
81162;BME280;70638;-33.792;151.032;2023-10-08T01:29:27;102436.68;;;20.12;45.22
81162;BME280;70638;-33.792;151.032;2023-10-08T01:31:59;102435.07;;;19.67;45.66
81162;BME280;70638;-33.792;151.032;2023-10-08T01:34:33;102436.34;;;19.48;45.97
81162;BME280;70638;-33.792;151.032;2023-10-08T01:36:56;102428.83;;;19.58;49.00
81162;BME280;70638;-33.792;151.032;2023-10-08T01:39:29;102425.81;;;20.03;46.48
81162;BME280;70638;-33.792;151.032;2023-10-08T01:41:58;102417.09;;;20.31;46.20
81162;BME280;70638;-33.792;151.032;2023-10-08T01:44:28;102407.70;;;20.45;44.52
81162;BME280;70638;-33.792;151.032;2023-10-08T01:47:01;102409.95;;;20.20;43.49
81162;BME280;70638;-33.792;151.032;2023-10-08T01:49:35;102402.62;;;19.78;43.87
81162;BME280;70638;-33.792;151.032;2023-10-08T01:52:00;102398.49;;;20.04;45.88
81162;BME280;70638;-33.792;151.032;2023-10-08T01:54:29;102391.88;;;20.14;43.75
81162;BME280;70638;-33.792;151.032;2023-10-08T01:57:00;102384.29;;;20.37;43.36
81162;BME280;70638;-33.792;151.032;2023-10-08T01:59:31;102382.86;;;20.48;44.61
81162;BME280;70638;-33.792;151.032;2023-10-08T02:02:00;102375.74;;;20.29;42.30
81162;BME280;70638;-33.792;151.032;2023-10-08T02:04:31;102368.70;;;20.11;42.15
81162;BME280;70638;-33.792;151.032;2023-10-08T02:07:02;102360.94;;;20.27;42.39
81162;BME280;70638;-33.792;151.032;2023-10-08T02:09:32;102358.72;;;20.35;44.23
81162;BME280;70638;-33.792;151.032;2023-10-08T02:12:03;102351.71;;;21.11;44.46
81162;BME280;70638;-33.792;151.032;2023-10-08T02:14:41;102341.83;;;21.16;40.77
81162;BME280;70638;-33.792;151.032;2023-10-08T02:17:09;102337.89;;;20.81;42.05
81162;BME280;70638;-33.792;151.032;2023-10-08T02:19:35;102334.75;;;21.32;42.85
81162;BME280;70638;-33.792;151.032;2023-10-08T02:22:07;102330.97;;;21.14;41.26
81162;BME280;70638;-33.792;151.032;2023-10-08T02:24:36;102335.03;;;21.44;39.69
81162;BME280;70638;-33.792;151.032;2023-10-08T02:27:07;102336.16;;;21.23;43.01
81162;BME280;70638;-33.792;151.032;2023-10-08T02:29:36;102328.87;;;20.86;40.86
81162;BME280;70638;-33.792;151.032;2023-10-08T02:32:11;102336.52;;;20.91;42.04
81162;BME280;70638;-33.792;151.032;2023-10-08T02:35:00;102323.08;;;20.89;42.51
81162;BME280;70638;-33.792;151.032;2023-10-08T02:37:09;102323.08;;;21.03;41.39
81162;BME280;70638;-33.792;151.032;2023-10-08T02:39:43;102313.05;;;21.24;44.40
81162;BME280;70638;-33.792;151.032;2023-10-08T02:42:21;102309.23;;;21.28;41.41
81162;BME280;70638;-33.792;151.032;2023-10-08T02:44:47;102305.51;;;21.21;40.05
81162;BME280;70638;-33.792;151.032;2023-10-08T02:47:13;102305.91;;;20.71;41.27
81162;BME280;70638;-33.792;151.032;2023-10-08T02:49:45;102306.16;;;20.44;41.38
81162;BME280;70638;-33.792;151.032;2023-10-08T02:52:12;102304.36;;;20.01;42.65
81162;BME280;70638;-33.792;151.032;2023-10-08T02:54:43;102294.22;;;19.80;44.41
81162;BME280;70638;-33.792;151.032;2023-10-08T02:57:17;102293.11;;;19.86;44.16
81162;BME280;70638;-33.792;151.032;2023-10-08T02:59:47;102290.27;;;19.83;46.99
81162;BME280;70638;-33.792;151.032;2023-10-08T03:02:23;102289.50;;;19.92;47.06
81162;BME280;70638;-33.792;151.032;2023-10-08T03:04:45;102282.44;;;20.20;46.47
81162;BME280;70638;-33.792;151.032;2023-10-08T03:07:19;102278.09;;;20.38;45.16
81162;BME280;70638;-33.792;151.032;2023-10-08T03:09:48;102271.78;;;20.42;43.00
81162;BME280;70638;-33.792;151.032;2023-10-08T03:12:15;102270.59;;;20.53;44.09
81162;BME280;70638;-33.792;151.032;2023-10-08T03:14:57;102265.94;;;20.46;43.91
81162;BME280;70638;-33.792;151.032;2023-10-08T03:17:19;102256.84;;;20.29;45.06
81162;BME280;70638;-33.792;151.032;2023-10-08T03:19:48;102258.05;;;20.07;44.11
81162;BME280;70638;-33.792;151.032;2023-10-08T03:22:21;102248.30;;;20.02;47.41
81162;BME280;70638;-33.792;151.032;2023-10-08T03:24:50;102246.03;;;20.35;45.10
81162;BME280;70638;-33.792;151.032;2023-10-08T03:27:28;102245.18;;;20.76;44.79
81162;BME280;70638;-33.792;151.032;2023-10-08T03:29:48;102241.50;;;20.98;46.09
81162;BME280;70638;-33.792;151.032;2023-10-08T03:32:20;102242.17;;;20.72;45.54
81162;BME280;70638;-33.792;151.032;2023-10-08T03:34:49;102234.23;;;20.47;46.74
81162;BME280;70638;-33.792;151.032;2023-10-08T03:37:23;102230.71;;;20.44;47.11
81162;BME280;70638;-33.792;151.032;2023-10-08T03:40:00;102232.58;;;20.69;47.34
81162;BME280;70638;-33.792;151.032;2023-10-08T03:42:24;102217.47;;;20.72;47.40
81162;BME280;70638;-33.792;151.032;2023-10-08T03:44:54;102229.89;;;20.64;45.96
81162;BME280;70638;-33.792;151.032;2023-10-08T03:47:24;102220.00;;;20.20;47.35
81162;BME280;70638;-33.792;151.032;2023-10-08T03:49:53;102228.31;;;19.97;47.61
81162;BME280;70638;-33.792;151.032;2023-10-08T03:52:28;102221.72;;;20.12;49.36
81162;BME280;70638;-33.792;151.032;2023-10-08T03:55:15;102225.50;;;19.94;49.95
81162;BME280;70638;-33.792;151.032;2023-10-08T03:57:33;102216.56;;;19.90;48.50
81162;BME280;70638;-33.792;151.032;2023-10-08T04:00:00;102220.41;;;19.89;51.06
81162;BME280;70638;-33.792;151.032;2023-10-08T04:02:46;102211.96;;;19.81;48.37
81162;BME280;70638;-33.792;151.032;2023-10-08T04:05:00;102209.39;;;19.90;48.75
81162;BME280;70638;-33.792;151.032;2023-10-08T04:07:40;102200.25;;;19.98;50.77
81162;BME280;70638;-33.792;151.032;2023-10-08T04:10:18;102195.16;;;20.00;49.09
81162;BME280;70638;-33.792;151.032;2023-10-08T04:12:29;102190.31;;;19.77;48.49
81162;BME280;70638;-33.792;151.032;2023-10-08T04:15:00;102185.12;;;19.71;49.38
81162;BME280;70638;-33.792;151.032;2023-10-08T04:17:29;102195.72;;;19.36;51.00
81162;BME280;70638;-33.792;151.032;2023-10-08T04:20:01;102192.83;;;19.11;50.61
81162;BME280;70638;-33.792;151.032;2023-10-08T04:22:30;102186.62;;;19.13;51.24
81162;BME280;70638;-33.792;151.032;2023-10-08T04:25:06;102184.79;;;19.14;51.24
81162;BME280;70638;-33.792;151.032;2023-10-08T04:27:36;102185.01;;;19.13;50.60
81162;BME280;70638;-33.792;151.032;2023-10-08T04:30:02;102178.85;;;19.19;50.97
81162;BME280;70638;-33.792;151.032;2023-10-08T04:32:34;102180.03;;;19.09;50.59
81162;BME280;70638;-33.792;151.032;2023-10-08T04:35:06;102174.83;;;19.23;52.45
81162;BME280;70638;-33.792;151.032;2023-10-08T04:37:36;102173.66;;;19.40;50.05
81162;BME280;70638;-33.792;151.032;2023-10-08T04:40:02;102166.84;;;19.25;50.30
81162;BME280;70638;-33.792;151.032;2023-10-08T04:42:32;102155.83;;;19.40;52.37
81162;BME280;70638;-33.792;151.032;2023-10-08T04:45:04;102161.86;;;19.62;52.21
81162;BME280;70638;-33.792;151.032;2023-10-08T04:47:37;102159.47;;;19.62;53.37
81162;BME280;70638;-33.792;151.032;2023-10-08T04:50:08;102158.77;;;19.49;50.79
81162;BME280;70638;-33.792;151.032;2023-10-08T04:52:41;102158.84;;;19.42;51.50
81162;BME280;70638;-33.792;151.032;2023-10-08T04:55:15;102155.97;;;19.44;51.11
81162;BME280;70638;-33.792;151.032;2023-10-08T04:57:36;102160.42;;;19.32;50.12
81162;BME280;70638;-33.792;151.032;2023-10-08T05:00:16;102145.81;;;19.29;50.99
81162;BME280;70638;-33.792;151.032;2023-10-08T05:02:49;102145.30;;;19.27;52.69
81162;BME280;70638;-33.792;151.032;2023-10-08T05:05:19;102142.26;;;19.31;51.14
81162;BME280;70638;-33.792;151.032;2023-10-08T05:07:52;102137.45;;;19.37;50.55
81162;BME280;70638;-33.792;151.032;2023-10-08T05:10:32;102132.94;;;19.54;51.84
81162;BME280;70638;-33.792;151.032;2023-10-08T05:12:54;102131.73;;;19.61;50.83
81162;BME280;70638;-33.792;151.032;2023-10-08T05:15:30;102130.23;;;19.64;50.89
81162;BME280;70638;-33.792;151.032;2023-10-08T05:17:57;102125.88;;;19.48;51.65
81162;BME280;70638;-33.792;151.032;2023-10-08T05:20:24;102126.62;;;19.45;50.27
81162;BME280;70638;-33.792;151.032;2023-10-08T05:22:52;102122.98;;;19.39;49.39
81162;BME280;70638;-33.792;151.032;2023-10-08T05:25:22;102116.30;;;19.27;50.88
81162;BME280;70638;-33.792;151.032;2023-10-08T05:27:45;102119.09;;;19.26;51.65
81162;BME280;70638;-33.792;151.032;2023-10-08T05:30:41;102110.09;;;19.15;51.14
81162;BME280;70638;-33.792;151.032;2023-10-08T05:32:46;102106.42;;;19.16;50.62
81162;BME280;70638;-33.792;151.032;2023-10-08T05:35:48;102102.91;;;19.30;51.30
81162;BME280;70638;-33.792;151.032;2023-10-08T05:37:49;102105.72;;;19.21;49.92
81162;BME280;70638;-33.792;151.032;2023-10-08T05:40:27;102105.12;;;19.12;51.32
81162;BME280;70638;-33.792;151.032;2023-10-08T05:42:52;102112.30;;;19.08;50.94
81162;BME280;70638;-33.792;151.032;2023-10-08T05:45:22;102110.92;;;18.99;51.66
81162;BME280;70638;-33.792;151.032;2023-10-08T05:47:53;102123.44;;;19.03;51.16
81162;BME280;70638;-33.792;151.032;2023-10-08T05:50:29;102103.03;;;19.01;52.06
81162;BME280;70638;-33.792;151.032;2023-10-08T05:53:05;102103.02;;;18.92;51.84
81162;BME280;70638;-33.792;151.032;2023-10-08T05:55:29;102108.25;;;18.82;53.37
81162;BME280;70638;-33.792;151.032;2023-10-08T05:57:54;102104.59;;;18.84;52.67
81162;BME280;70638;-33.792;151.032;2023-10-08T06:00:28;102107.55;;;18.88;53.61
81162;BME280;70638;-33.792;151.032;2023-10-08T06:03:11;102104.37;;;18.84;52.95
81162;BME280;70638;-33.792;151.032;2023-10-08T06:05:26;102108.47;;;18.71;52.74
81162;BME280;70638;-33.792;151.032;2023-10-08T06:07:56;102108.44;;;18.68;53.45
81162;BME280;70638;-33.792;151.032;2023-10-08T06:10:39;102101.73;;;18.57;53.50
81162;BME280;70638;-33.792;151.032;2023-10-08T06:12:58;102105.78;;;18.54;53.22
81162;BME280;70638;-33.792;151.032;2023-10-08T06:15:29;102108.00;;;18.48;53.75
81162;BME280;70638;-33.792;151.032;2023-10-08T06:18:05;102105.45;;;18.43;54.06
81162;BME280;70638;-33.792;151.032;2023-10-08T06:20:27;102102.43;;;18.46;55.31
81162;BME280;70638;-33.792;151.032;2023-10-08T06:22:52;102108.78;;;18.38;54.42
81162;BME280;70638;-33.792;151.032;2023-10-08T06:25:26;102107.04;;;18.34;56.66
81162;BME280;70638;-33.792;151.032;2023-10-08T06:27:57;102107.22;;;18.28;56.25
81162;BME280;70638;-33.792;151.032;2023-10-08T06:30:24;102110.50;;;18.22;55.18
81162;BME280;70638;-33.792;151.032;2023-10-08T06:32:55;102101.39;;;18.22;55.35
81162;BME280;70638;-33.792;151.032;2023-10-08T06:35:29;102100.76;;;18.14;54.85
81162;BME280;70638;-33.792;151.032;2023-10-08T06:37:58;102094.70;;;18.18;55.51
81162;BME280;70638;-33.792;151.032;2023-10-08T06:40:45;102101.05;;;18.10;55.91
81162;BME280;70638;-33.792;151.032;2023-10-08T06:42:59;102099.40;;;18.04;56.14
81162;BME280;70638;-33.792;151.032;2023-10-08T06:45:26;102096.54;;;17.94;56.92
81162;BME280;70638;-33.792;151.032;2023-10-08T06:47:59;102095.56;;;17.92;56.88
81162;BME280;70638;-33.792;151.032;2023-10-08T06:50:26;102103.90;;;17.87;57.29
81162;BME280;70638;-33.792;151.032;2023-10-08T06:52:57;102094.58;;;17.76;56.46
81162;BME280;70638;-33.792;151.032;2023-10-08T06:55:30;102092.23;;;17.68;57.81
81162;BME280;70638;-33.792;151.032;2023-10-08T06:57:58;102101.84;;;17.63;58.65
81162;BME280;70638;-33.792;151.032;2023-10-08T07:00:52;102100.88;;;17.53;57.71
81162;BME280;70638;-33.792;151.032;2023-10-08T07:03:00;102100.11;;;17.52;57.59
81162;BME280;70638;-33.792;151.032;2023-10-08T07:05:33;102102.05;;;17.42;58.08
81162;BME280;70638;-33.792;151.032;2023-10-08T07:08:01;102101.47;;;17.34;60.28
81162;BME280;70638;-33.792;151.032;2023-10-08T07:10:33;102100.33;;;17.24;59.80
81162;BME280;70638;-33.792;151.032;2023-10-08T07:13:02;102105.00;;;17.23;61.16
81162;BME280;70638;-33.792;151.032;2023-10-08T07:15:33;102098.70;;;17.23;59.62
81162;BME280;70638;-33.792;151.032;2023-10-08T07:18:14;102095.59;;;17.11;59.76
81162;BME280;70638;-33.792;151.032;2023-10-08T07:20:45;102092.16;;;17.02;60.80
81162;BME280;70638;-33.792;151.032;2023-10-08T07:23:05;102092.31;;;16.97;60.93
81162;BME280;70638;-33.792;151.032;2023-10-08T07:25:40;102093.53;;;16.85;61.14
81162;BME280;70638;-33.792;151.032;2023-10-08T07:28:14;102096.17;;;16.85;60.91
81162;BME280;70638;-33.792;151.032;2023-10-08T07:30:45;102100.64;;;16.80;62.32
81162;BME280;70638;-33.792;151.032;2023-10-08T07:33:07;102104.97;;;16.69;63.31
81162;BME280;70638;-33.792;151.032;2023-10-08T07:35:42;102108.00;;;16.64;62.38
81162;BME280;70638;-33.792;151.032;2023-10-08T07:38:12;102108.44;;;16.61;62.38
81162;BME280;70638;-33.792;151.032;2023-10-08T07:40:40;102108.60;;;16.53;62.58
81162;BME280;70638;-33.792;151.032;2023-10-08T07:43:11;102114.80;;;16.42;65.57
81162;BME280;70638;-33.792;151.032;2023-10-08T07:45:39;102117.92;;;16.38;65.43
81162;BME280;70638;-33.792;151.032;2023-10-08T07:48:12;102118.06;;;16.39;62.50
81162;BME280;70638;-33.792;151.032;2023-10-08T07:50:45;102118.15;;;16.29;62.76
81162;BME280;70638;-33.792;151.032;2023-10-08T07:53:15;102119.89;;;16.17;63.55
81162;BME280;70638;-33.792;151.032;2023-10-08T07:55:41;102122.83;;;16.15;62.72
81162;BME280;70638;-33.792;151.032;2023-10-08T07:58:14;102124.84;;;15.97;62.91
81162;BME280;70638;-33.792;151.032;2023-10-08T08:00:44;102122.34;;;15.89;62.35
81162;BME280;70638;-33.792;151.032;2023-10-08T08:03:14;102124.61;;;15.81;64.15
81162;BME280;70638;-33.792;151.032;2023-10-08T08:05:44;102135.38;;;15.81;63.86
81162;BME280;70638;-33.792;151.032;2023-10-08T08:08:19;102129.52;;;15.84;61.46
81162;BME280;70638;-33.792;151.032;2023-10-08T08:10:47;102132.47;;;15.74;63.96
81162;BME280;70638;-33.792;151.032;2023-10-08T08:13:16;102131.28;;;15.65;61.83
81162;BME280;70638;-33.792;151.032;2023-10-08T08:15:50;102136.84;;;15.58;62.02
81162;BME280;70638;-33.792;151.032;2023-10-08T08:18:25;102136.11;;;15.53;64.57
81162;BME280;70638;-33.792;151.032;2023-10-08T08:20:46;102135.81;;;15.41;62.68
81162;BME280;70638;-33.792;151.032;2023-10-08T08:23:18;102143.91;;;15.28;63.92
81162;BME280;70638;-33.792;151.032;2023-10-08T08:26:18;102149.70;;;15.20;64.28
81162;BME280;70638;-33.792;151.032;2023-10-08T08:28:22;102150.27;;;15.16;64.21
81162;BME280;70638;-33.792;151.032;2023-10-08T08:30:54;102147.48;;;15.25;63.32
81162;BME280;70638;-33.792;151.032;2023-10-08T08:33:25;102159.94;;;15.16;65.72
81162;BME280;70638;-33.792;151.032;2023-10-08T08:36:02;102153.85;;;15.17;64.47
81162;BME280;70638;-33.792;151.032;2023-10-08T08:38:19;102159.88;;;15.20;65.30
81162;BME280;70638;-33.792;151.032;2023-10-08T08:40:51;102161.91;;;15.14;66.21
81162;BME280;70638;-33.792;151.032;2023-10-08T08:43:21;102162.23;;;15.10;64.87
81162;BME280;70638;-33.792;151.032;2023-10-08T08:45:52;102160.30;;;15.08;65.75
81162;BME280;70638;-33.792;151.032;2023-10-08T08:48:22;102155.16;;;14.92;67.00
81162;BME280;70638;-33.792;151.032;2023-10-08T08:50:52;102152.84;;;14.91;65.99
81162;BME280;70638;-33.792;151.032;2023-10-08T08:53:24;102156.02;;;14.95;65.65
81162;BME280;70638;-33.792;151.032;2023-10-08T08:55:54;102153.66;;;14.87;66.54
81162;BME280;70638;-33.792;151.032;2023-10-08T08:58:25;102153.82;;;14.81;66.50
81162;BME280;70638;-33.792;151.032;2023-10-08T09:00:58;102162.22;;;14.82;66.86
81162;BME280;70638;-33.792;151.032;2023-10-08T09:03:35;102168.48;;;14.75;66.78
81162;BME280;70638;-33.792;151.032;2023-10-08T09:05:55;102173.52;;;14.72;66.86
81162;BME280;70638;-33.792;151.032;2023-10-08T09:08:33;102174.33;;;14.62;67.91
81162;BME280;70638;-33.792;151.032;2023-10-08T09:10:58;102175.98;;;14.56;67.81
81162;BME280;70638;-33.792;151.032;2023-10-08T09:13:29;102178.17;;;14.55;67.81
81162;BME280;70638;-33.792;151.032;2023-10-08T09:16:15;102180.23;;;14.52;67.66
81162;BME280;70638;-33.792;151.032;2023-10-08T09:18:34;102183.48;;;14.43;67.92
81162;BME280;70638;-33.792;151.032;2023-10-08T09:21:10;102179.63;;;14.44;70.18
81162;BME280;70638;-33.792;151.032;2023-10-08T09:23:30;102181.24;;;14.41;68.80
81162;BME280;70638;-33.792;151.032;2023-10-08T09:26:05;102182.70;;;14.34;68.16
81162;BME280;70638;-33.792;151.032;2023-10-08T09:28:32;102177.19;;;14.34;67.65
81162;BME280;70638;-33.792;151.032;2023-10-08T09:31:03;102186.30;;;14.22;68.96
81162;BME280;70638;-33.792;151.032;2023-10-08T09:33:32;102185.03;;;14.27;68.66
81162;BME280;70638;-33.792;151.032;2023-10-08T09:36:09;102182.69;;;14.24;68.65
81162;BME280;70638;-33.792;151.032;2023-10-08T09:38:34;102188.87;;;14.19;68.78
81162;BME280;70638;-33.792;151.032;2023-10-08T09:41:06;102191.11;;;14.12;69.00
81162;BME280;70638;-33.792;151.032;2023-10-08T09:43:41;102191.26;;;14.06;68.97
81162;BME280;70638;-33.792;151.032;2023-10-08T09:46:20;102195.81;;;14.01;70.04
81162;BME280;70638;-33.792;151.032;2023-10-08T09:48:37;102194.39;;;14.01;71.06
81162;BME280;70638;-33.792;151.032;2023-10-08T09:51:10;102195.41;;;13.97;71.24
81162;BME280;70638;-33.792;151.032;2023-10-08T09:54:03;102199.20;;;13.90;69.96
81162;BME280;70638;-33.792;151.032;2023-10-08T09:56:13;102200.08;;;13.83;71.18
81162;BME280;70638;-33.792;151.032;2023-10-08T09:58:37;102198.17;;;13.72;71.31
81162;BME280;70638;-33.792;151.032;2023-10-08T10:01:11;102206.59;;;13.61;71.42
81162;BME280;70638;-33.792;151.032;2023-10-08T10:03:39;102203.03;;;13.52;71.78
81162;BME280;70638;-33.792;151.032;2023-10-08T10:06:13;102202.91;;;13.46;72.52
81162;BME280;70638;-33.792;151.032;2023-10-08T10:08:39;102210.12;;;13.42;72.76
81162;BME280;70638;-33.792;151.032;2023-10-08T10:11:11;102209.54;;;13.40;73.02
81162;BME280;70638;-33.792;151.032;2023-10-08T10:13:42;102213.75;;;13.26;73.36
81162;BME280;70638;-33.792;151.032;2023-10-08T10:16:11;102210.79;;;13.16;73.97
81162;BME280;70638;-33.792;151.032;2023-10-08T10:18:43;102211.82;;;13.07;74.46
81162;BME280;70638;-33.792;151.032;2023-10-08T10:21:24;102208.97;;;12.97;75.03
81162;BME280;70638;-33.792;151.032;2023-10-08T10:23:46;102213.14;;;12.85;75.87
81162;BME280;70638;-33.792;151.032;2023-10-08T10:26:28;102215.94;;;12.70;76.38
81162;BME280;70638;-33.792;151.032;2023-10-08T10:28:43;102213.03;;;12.63;77.13
81162;BME280;70638;-33.792;151.032;2023-10-08T10:31:21;102212.70;;;12.57;77.49
81162;BME280;70638;-33.792;151.032;2023-10-08T10:33:45;102212.14;;;12.51;77.66
81162;BME280;70638;-33.792;151.032;2023-10-08T10:36:19;102212.69;;;12.44;77.62
81162;BME280;70638;-33.792;151.032;2023-10-08T10:38:49;102211.12;;;12.47;77.61
81162;BME280;70638;-33.792;151.032;2023-10-08T10:41:18;102211.77;;;12.38;78.40
81162;BME280;70638;-33.792;151.032;2023-10-08T10:43:55;102213.24;;;12.31;78.92
81162;BME280;70638;-33.792;151.032;2023-10-08T10:46:33;102208.11;;;12.25;79.10
81162;BME280;70638;-33.792;151.032;2023-10-08T10:48:56;102212.56;;;12.21;78.94
81162;BME280;70638;-33.792;151.032;2023-10-08T10:51:21;102212.98;;;12.14;79.64
81162;BME280;70638;-33.792;151.032;2023-10-08T10:54:04;102209.30;;;12.16;79.86
81162;BME280;70638;-33.792;151.032;2023-10-08T10:56:27;102206.59;;;12.09;80.37
81162;BME280;70638;-33.792;151.032;2023-10-08T10:58:51;102205.91;;;12.05;80.15
81162;BME280;70638;-33.792;151.032;2023-10-08T11:01:32;102205.66;;;12.01;80.76
81162;BME280;70638;-33.792;151.032;2023-10-08T11:03:54;102200.11;;;11.95;81.03
81162;BME280;70638;-33.792;151.032;2023-10-08T11:06:25;102205.19;;;11.88;81.39
81162;BME280;70638;-33.792;151.032;2023-10-08T11:08:54;102207.79;;;11.84;81.56
81162;BME280;70638;-33.792;151.032;2023-10-08T11:11:27;102204.86;;;11.77;81.78
81162;BME280;70638;-33.792;151.032;2023-10-08T11:13:58;102204.84;;;11.79;82.04
81162;BME280;70638;-33.792;151.032;2023-10-08T11:16:24;102204.44;;;11.76;82.13
81162;BME280;70638;-33.792;151.032;2023-10-08T11:18:58;102202.45;;;11.72;82.44
81162;BME280;70638;-33.792;151.032;2023-10-08T11:21:33;102205.31;;;11.72;82.24
81162;BME280;70638;-33.792;151.032;2023-10-08T11:24:03;102203.68;;;11.70;82.46
81162;BME280;70638;-33.792;151.032;2023-10-08T11:26:38;102203.84;;;11.62;82.70
81162;BME280;70638;-33.792;151.032;2023-10-08T11:28:56;102206.52;;;11.56;83.23
81162;BME280;70638;-33.792;151.032;2023-10-08T11:31:28;102208.24;;;11.53;83.23
81162;BME280;70638;-33.792;151.032;2023-10-08T11:34:00;102205.30;;;11.51;83.27
81162;BME280;70638;-33.792;151.032;2023-10-08T11:36:37;102203.67;;;11.54;83.45
81162;BME280;70638;-33.792;151.032;2023-10-08T11:39:14;102203.23;;;11.54;83.48
81162;BME280;70638;-33.792;151.032;2023-10-08T11:41:30;102204.48;;;11.48;83.62
81162;BME280;70638;-33.792;151.032;2023-10-08T11:44:00;102205.46;;;11.45;83.69
81162;BME280;70638;-33.792;151.032;2023-10-08T11:46:40;102207.84;;;11.42;84.20
81162;BME280;70638;-33.792;151.032;2023-10-08T11:49:07;102211.69;;;11.33;84.36
81162;BME280;70638;-33.792;151.032;2023-10-08T11:51:36;102208.01;;;11.34;84.53
81162;BME280;70638;-33.792;151.032;2023-10-08T11:54:02;102212.30;;;11.38;84.43
81162;BME280;70638;-33.792;151.032;2023-10-08T11:56:31;102208.73;;;11.39;84.34
81162;BME280;70638;-33.792;151.032;2023-10-08T11:59:03;102214.87;;;11.41;84.01
81162;BME280;70638;-33.792;151.032;2023-10-08T12:01:33;102207.11;;;11.44;84.01
81162;BME280;70638;-33.792;151.032;2023-10-08T12:04:02;102205.11;;;11.45;83.98
81162;BME280;70638;-33.792;151.032;2023-10-08T12:06:37;102202.95;;;11.42;84.19
81162;BME280;70638;-33.792;151.032;2023-10-08T12:09:08;102212.70;;;11.39;84.41
81162;BME280;70638;-33.792;151.032;2023-10-08T12:11:36;102208.09;;;11.38;84.22
81162;BME280;70638;-33.792;151.032;2023-10-08T12:14:05;102210.91;;;11.43;84.14
81162;BME280;70638;-33.792;151.032;2023-10-08T12:16:38;102211.94;;;11.39;84.40
81162;BME280;70638;-33.792;151.032;2023-10-08T12:19:09;102212.73;;;11.36;84.85
81162;BME280;70638;-33.792;151.032;2023-10-08T12:21:35;102213.15;;;11.36;84.41
81162;BME280;70638;-33.792;151.032;2023-10-08T12:24:08;102211.77;;;11.39;84.30
81162;BME280;70638;-33.792;151.032;2023-10-08T12:26:36;102211.20;;;11.38;84.37
81162;BME280;70638;-33.792;151.032;2023-10-08T12:29:08;102209.78;;;11.40;84.52
81162;BME280;70638;-33.792;151.032;2023-10-08T12:31:38;102207.30;;;11.39;84.76
81162;BME280;70638;-33.792;151.032;2023-10-08T12:34:09;102206.58;;;11.33;84.67
81162;BME280;70638;-33.792;151.032;2023-10-08T12:36:40;102203.50;;;11.31;84.52